createdAt,value
2017-03-04T00:00:13.422Z,21.25
2017-03-04T00:01:27.870Z,21.25
2017-03-04T00:02:42.293Z,21.19
2017-03-04T00:03:56.700Z,21.21
2017-03-04T00:05:11.106Z,21.22
2017-03-04T00:06:25.549Z,21.17
2017-03-04T00:07:39.992Z,21.14
2017-03-04T00:08:54.469Z,21.1
2017-03-04T00:10:08.892Z,21.12
2017-03-04T00:11:23.326Z,21.14
2017-03-04T00:12:37.700Z,21.16
2017-03-04T00:13:52.116Z,21.1
2017-03-04T00:15:05.873Z,21.1
2017-03-04T00:16:20.275Z,21.04
2017-03-04T00:17:34.187Z,21.07
2017-03-04T00:18:48.644Z,20.95
2017-03-04T00:20:03.094Z,21.04
2017-03-04T00:21:16.864Z,21.13
2017-03-04T00:22:31.305Z,21.24
2017-03-04T00:23:45.727Z,21.24
2017-03-04T00:27:30.361Z,21.12
2017-03-04T00:28:44.734Z,21.25
2017-03-04T00:29:58.482Z,21.19
2017-03-04T00:31:12.886Z,21.17
2017-03-04T00:32:27.330Z,21.12
2017-03-04T00:33:41.753Z,21.16
2017-03-04T00:34:56.159Z,21.12
2017-03-04T00:36:09.923Z,21.19
2017-03-04T00:37:24.321Z,21.27
2017-03-04T00:38:38.702Z,21.28
2017-03-04T00:39:53.133Z,21.28
2017-03-04T00:41:07.536Z,21.24
2017-03-04T00:42:21.921Z,21.24
2017-03-04T00:43:36.319Z,21.22
2017-03-04T00:44:50.723Z,21.1
2017-03-04T00:46:05.121Z,21.06
2017-03-04T00:47:19.519Z,21.1
2017-03-04T00:48:33.957Z,21.1
2017-03-04T00:49:48.399Z,21.14
2017-03-04T00:51:02.805Z,21.09
2017-03-04T00:52:17.214Z,21.14
2017-03-04T00:53:30.941Z,21.06
2017-03-04T00:54:45.356Z,21.12
2017-03-04T00:55:59.776Z,21.03
2017-03-04T00:57:13.581Z,21.12
2017-03-04T00:58:28.001Z,21.13
2017-03-04T00:59:41.781Z,21.07
2017-03-04T01:00:56.183Z,21.04
2017-03-04T01:02:08.652Z,21.03
2017-03-04T01:03:23.069Z,20.97
2017-03-04T01:04:37.444Z,20.98
2017-03-04T01:05:51.876Z,20.92
2017-03-04T01:07:06.334Z,20.92
2017-03-04T01:08:20.740Z,20.85
2017-03-04T01:09:35.150Z,20.92
2017-03-04T01:10:49.601Z,20.88
2017-03-04T01:12:04.003Z,20.91
2017-03-04T01:13:18.422Z,20.89
2017-03-04T01:14:32.809Z,20.91
2017-03-04T01:15:47.194Z,20.88
2017-03-04T01:17:01.604Z,20.82
2017-03-04T01:18:16.019Z,20.88
2017-03-04T01:19:30.429Z,20.88
2017-03-04T01:20:44.834Z,20.82
2017-03-04T01:21:58.619Z,20.91
2017-03-04T01:23:12.431Z,20.85
2017-03-04T01:24:26.901Z,20.85
2017-03-04T01:25:41.284Z,20.85
2017-03-04T01:26:55.694Z,20.76
2017-03-04T01:28:10.106Z,20.82
2017-03-04T01:29:24.510Z,20.76
2017-03-04T01:30:38.907Z,20.66
2017-03-04T01:31:53.286Z,20.7
2017-03-04T01:33:07.682Z,20.76
2017-03-04T01:34:22.080Z,20.74
2017-03-04T01:35:36.523Z,20.67
2017-03-04T01:36:50.957Z,20.76
2017-03-04T01:38:05.347Z,20.64
2017-03-04T01:39:19.746Z,20.64
2017-03-04T01:40:33.535Z,20.72
2017-03-04T01:41:47.962Z,20.73
2017-03-04T01:43:02.377Z,20.72
2017-03-04T01:44:16.777Z,20.79
2017-03-04T01:45:30.561Z,20.77
2017-03-04T01:46:44.987Z,20.82
2017-03-04T01:47:59.401Z,20.76
2017-03-04T01:49:13.182Z,20.72
2017-03-04T01:50:27.587Z,20.73
2017-03-04T01:51:41.999Z,20.76
2017-03-04T01:52:56.451Z,20.7
2017-03-04T01:54:10.874Z,20.64
2017-03-04T01:55:25.279Z,20.77
2017-03-04T01:56:39.729Z,20.73
2017-03-04T01:57:54.167Z,20.64
2017-03-04T01:59:08.578Z,20.76
2017-03-04T02:00:22.342Z,20.64
2017-03-04T02:01:36.735Z,20.69
2017-03-04T02:02:51.141Z,20.72
2017-03-04T02:04:05.568Z,20.73
2017-03-04T02:05:20.019Z,20.73
2017-03-04T02:06:34.445Z,20.72
2017-03-04T02:07:48.863Z,20.76
2017-03-04T02:09:03.265Z,20.7
2017-03-04T02:10:17.681Z,20.8
2017-03-04T02:11:32.055Z,20.76
2017-03-04T02:12:46.439Z,20.69
2017-03-04T02:14:00.934Z,20.69
2017-03-04T02:15:15.398Z,20.8
2017-03-04T02:16:42.522Z,20.77
2017-03-04T02:17:56.916Z,20.76
2017-03-04T02:19:10.679Z,20.72
2017-03-04T02:20:25.072Z,20.62
2017-03-04T02:21:39.463Z,20.69
2017-03-04T02:22:53.876Z,20.64
2017-03-04T02:24:08.287Z,20.61
2017-03-04T02:25:22.726Z,20.66
2017-03-04T02:26:37.140Z,20.64
2017-03-04T02:27:51.534Z,20.66
2017-03-04T02:29:05.992Z,20.66
2017-03-04T02:30:20.378Z,20.61
2017-03-04T02:31:34.746Z,20.64
2017-03-04T02:32:49.517Z,20.58
2017-03-04T02:34:04.007Z,20.57
2017-03-04T02:35:18.388Z,20.51
2017-03-04T02:36:32.790Z,20.54
2017-03-04T02:37:47.193Z,20.61
2017-03-04T02:39:01.586Z,20.57
2017-03-04T02:40:16.008Z,20.52
2017-03-04T02:41:30.402Z,20.5
2017-03-04T02:42:44.810Z,20.5
2017-03-04T02:43:59.200Z,20.58
2017-03-04T02:45:13.582Z,20.58
2017-03-04T02:46:28.062Z,20.58
2017-03-04T02:47:42.463Z,20.55
2017-03-04T02:48:56.843Z,20.42
2017-03-04T02:50:11.229Z,20.47
2017-03-04T02:51:25.625Z,20.47
2017-03-04T02:52:40.031Z,20.43
2017-03-04T02:53:54.413Z,20.48
2017-03-04T02:55:08.824Z,20.42
2017-03-04T02:56:22.625Z,20.47
2017-03-04T02:57:37.049Z,20.42
2017-03-04T02:59:53.338Z,20.42
2017-03-04T03:01:07.064Z,20.51
2017-03-04T03:02:20.814Z,20.42
2017-03-04T03:03:35.201Z,20.47
2017-03-04T03:04:49.586Z,20.52
2017-03-04T03:06:04.036Z,20.51
2017-03-04T03:07:17.811Z,20.42
2017-03-04T03:08:32.208Z,20.5
2017-03-04T03:09:46.616Z,20.48
2017-03-04T03:11:01.027Z,20.57
2017-03-04T03:12:14.771Z,20.54
2017-03-04T03:13:29.159Z,20.55
2017-03-04T03:14:43.527Z,20.55
2017-03-04T03:15:57.967Z,20.52
2017-03-04T03:17:12.423Z,20.59
2017-03-04T03:18:26.840Z,20.48
2017-03-04T03:19:41.266Z,20.57
2017-03-04T03:20:55.645Z,20.57
2017-03-04T03:22:10.041Z,20.54
2017-03-04T03:23:24.460Z,20.47
2017-03-04T03:24:38.864Z,20.52
2017-03-04T03:25:54.287Z,20.55
2017-03-04T03:27:08.680Z,20.51
2017-03-04T03:28:23.118Z,20.57
2017-03-04T03:29:37.518Z,20.47
2017-03-04T03:30:51.924Z,20.55
2017-03-04T03:32:06.367Z,20.59
2017-03-04T03:33:20.781Z,20.58
2017-03-04T03:34:35.178Z,20.5
2017-03-04T03:35:49.604Z,20.59
2017-03-04T03:37:03.358Z,20.48
2017-03-04T03:38:17.818Z,20.61
2017-03-04T03:39:32.225Z,20.55
2017-03-04T03:40:46.633Z,20.48
2017-03-04T03:42:01.064Z,20.51
2017-03-04T03:43:14.799Z,20.5
2017-03-04T03:44:29.189Z,20.58
2017-03-04T03:45:43.589Z,20.42
2017-03-04T03:46:58.005Z,20.43
2017-03-04T03:48:12.449Z,20.41
2017-03-04T03:49:26.217Z,20.47
2017-03-04T03:50:40.654Z,20.5
2017-03-04T03:51:55.143Z,20.36
2017-03-04T03:53:09.567Z,20.33
2017-03-04T03:54:23.973Z,20.41
2017-03-04T03:55:38.387Z,20.35
2017-03-04T03:56:52.799Z,20.32
2017-03-04T03:58:06.575Z,20.32
2017-03-04T03:59:21.037Z,20.29
2017-03-04T04:00:34.831Z,20.29
2017-03-04T04:01:49.235Z,20.28
2017-03-04T04:03:03.648Z,20.23
2017-03-04T04:04:18.107Z,20.31
2017-03-04T04:05:32.499Z,20.2
2017-03-04T04:06:46.894Z,20.21
2017-03-04T04:08:01.304Z,20.17
2017-03-04T04:09:15.701Z,20.18
2017-03-04T04:10:30.119Z,20.21
2017-03-04T04:11:44.519Z,20.11
2017-03-04T04:12:58.994Z,20.17
2017-03-04T04:14:12.729Z,20.06
2017-03-04T04:15:27.109Z,20.13
2017-03-04T04:16:41.579Z,20.11
2017-03-04T04:17:55.966Z,20.14
2017-03-04T04:19:10.421Z,20.11
2017-03-04T04:20:24.872Z,20.23
2017-03-04T04:21:39.256Z,20.21
2017-03-04T04:22:53.653Z,20.1
2017-03-04T04:24:08.083Z,20.1
2017-03-04T04:25:22.476Z,20.03
2017-03-04T04:26:36.867Z,20.16
2017-03-04T04:27:51.261Z,20.06
2017-03-04T04:29:05.675Z,20.06
2017-03-04T04:30:20.143Z,20.11
2017-03-04T04:31:34.595Z,20.08
2017-03-04T04:32:49.071Z,20.05
2017-03-04T04:34:02.818Z,20.16
2017-03-04T04:35:17.245Z,20.06
2017-03-04T04:36:31.657Z,20.13
2017-03-04T04:37:46.078Z,20.13
2017-03-04T04:39:00.521Z,20.14
2017-03-04T04:40:14.898Z,20.06
2017-03-04T04:41:29.301Z,20.1
2017-03-04T04:42:43.059Z,20.13
2017-03-04T04:43:57.486Z,20.21
2017-03-04T04:45:11.872Z,20.23
2017-03-04T04:46:25.605Z,20.23
2017-03-04T04:47:39.386Z,20.23
2017-03-04T04:48:53.842Z,20.16
2017-03-04T04:50:08.251Z,20.16
2017-03-04T04:51:22.695Z,20.21
2017-03-04T04:52:37.133Z,20.21
2017-03-04T04:53:51.567Z,20.2
2017-03-04T04:55:05.951Z,20.17
2017-03-04T04:56:19.695Z,20.24
2017-03-04T04:57:34.122Z,20.18
2017-03-04T04:58:47.901Z,20.17
2017-03-04T05:00:02.334Z,20.18
2017-03-04T05:01:16.728Z,20.29
2017-03-04T05:02:31.169Z,20.24
2017-03-04T05:03:45.550Z,20.17
2017-03-04T05:04:59.351Z,20.14
2017-03-04T05:06:13.802Z,20.26
2017-03-04T05:07:28.201Z,20.23
2017-03-04T05:08:42.624Z,20.24
2017-03-04T05:09:57.017Z,20.21
2017-03-04T05:11:10.178Z,20.21
2017-03-04T05:12:24.586Z,20.28
2017-03-04T05:13:38.985Z,20.18
2017-03-04T05:14:53.388Z,20.16
2017-03-04T05:16:07.842Z,20.2
2017-03-04T05:17:22.226Z,20.21
2017-03-04T05:18:36.623Z,20.26
2017-03-04T05:19:51.005Z,20.18
2017-03-04T05:21:05.416Z,20.21
2017-03-04T05:22:19.836Z,20.24
2017-03-04T05:23:33.583Z,20.21
2017-03-04T05:24:47.989Z,20.26
2017-03-04T05:26:02.424Z,20.14
2017-03-04T05:27:16.825Z,20.26
2017-03-04T05:28:31.188Z,20.18
2017-03-04T05:29:45.581Z,20.29
2017-03-04T05:31:00.000Z,20.32
2017-03-04T05:32:13.761Z,20.29
2017-03-04T05:33:26.858Z,20.36
2017-03-04T05:34:41.305Z,20.41
2017-03-04T05:35:55.696Z,20.47
2017-03-04T05:37:10.105Z,20.39
2017-03-04T05:38:24.504Z,20.38
2017-03-04T05:39:38.915Z,20.28
2017-03-04T05:40:53.304Z,20.21
2017-03-04T05:42:07.759Z,20.24
2017-03-04T05:43:22.158Z,20.16
2017-03-04T05:44:36.558Z,20.28
2017-03-04T05:45:51.018Z,20.31
2017-03-04T05:47:05.406Z,20.31
2017-03-04T05:48:19.796Z,20.35
2017-03-04T05:49:34.233Z,20.24
2017-03-04T05:50:48.023Z,20.29
2017-03-04T05:52:02.427Z,20.31
2017-03-04T05:53:16.154Z,20.26
2017-03-04T05:54:29.934Z,20.26
2017-03-04T05:55:44.344Z,20.23
2017-03-04T05:56:58.736Z,20.18
2017-03-04T05:58:13.164Z,20.17
2017-03-04T05:59:27.531Z,20.23
2017-03-04T06:00:41.905Z,20.2
2017-03-04T06:01:56.328Z,20.14
2017-03-04T06:03:10.705Z,20.06
2017-03-04T06:04:25.126Z,20.08
2017-03-04T06:05:38.874Z,20.17
2017-03-04T06:06:53.308Z,20.1
2017-03-04T06:08:07.718Z,20.1
2017-03-04T06:09:22.096Z,20.2
2017-03-04T06:10:36.502Z,20.08
2017-03-04T06:11:50.891Z,20.1
2017-03-04T06:13:05.294Z,20.18
2017-03-04T06:14:19.751Z,20.1
2017-03-04T06:15:34.165Z,20.11
2017-03-04T06:16:48.551Z,20.06
2017-03-04T06:18:03.013Z,20.16
2017-03-04T06:19:16.796Z,20.08
2017-03-04T06:20:31.168Z,20.16
2017-03-04T06:21:45.556Z,20.08
2017-03-04T06:22:59.946Z,20.13
2017-03-04T06:24:13.712Z,20.08
2017-03-04T06:25:27.524Z,20.14
2017-03-04T06:26:41.927Z,20.1
2017-03-04T06:27:56.350Z,20.14
2017-03-04T06:29:10.788Z,20.05
2017-03-04T06:30:25.224Z,20.17
2017-03-04T06:31:39.598Z,20.11
2017-03-04T06:32:54.040Z,20.16
2017-03-04T06:34:08.442Z,20.16
2017-03-04T06:35:22.848Z,20.11
2017-03-04T06:36:37.255Z,20.1
2017-03-04T06:37:51.662Z,20.08
2017-03-04T06:39:06.046Z,20.1
2017-03-04T06:40:20.422Z,20.06
2017-03-04T06:41:34.822Z,20.11
2017-03-04T06:42:49.236Z,20.16
2017-03-04T06:44:03.639Z,20.13
2017-03-04T06:45:18.021Z,20.11
2017-03-04T06:46:32.456Z,20.14
2017-03-04T06:47:46.888Z,20.17
2017-03-04T06:49:01.298Z,20.13
2017-03-04T06:50:15.750Z,20.23
2017-03-04T06:51:30.173Z,20.23
2017-03-04T06:52:44.531Z,20.06
2017-03-04T06:53:58.937Z,20.02
2017-03-04T06:55:12.713Z,20.13
2017-03-04T06:56:27.126Z,20.11
2017-03-04T06:57:41.529Z,20.16
2017-03-04T06:58:55.942Z,20.1
2017-03-04T07:00:10.343Z,20.14
2017-03-04T07:01:24.735Z,20.05
2017-03-04T07:02:39.167Z,20.08
2017-03-04T07:03:52.917Z,20.08
2017-03-04T07:05:07.331Z,20.03
2017-03-04T07:06:21.116Z,20.03
2017-03-04T07:07:35.549Z,20.11
2017-03-04T07:08:49.947Z,20.11
2017-03-04T07:10:04.388Z,20.05
2017-03-04T07:11:18.856Z,20.13
2017-03-04T07:12:33.287Z,20.08
2017-03-04T07:13:47.061Z,20.08
2017-03-04T07:15:00.809Z,20.13
2017-03-04T07:16:14.561Z,20.14
2017-03-04T07:17:28.297Z,20.23
2017-03-04T07:18:42.711Z,20.2
2017-03-04T07:19:57.129Z,20.2
2017-03-04T07:21:11.547Z,20.23
2017-03-04T07:22:25.916Z,20.17
2017-03-04T07:23:40.376Z,20.2
2017-03-04T07:24:54.857Z,20.28
2017-03-04T07:26:09.288Z,20.28
2017-03-04T07:27:23.038Z,20.16
2017-03-04T07:28:37.471Z,20.24
2017-03-04T07:29:51.929Z,20.31
2017-03-04T07:31:06.343Z,20.28
2017-03-04T07:32:20.073Z,20.23
2017-03-04T07:33:34.465Z,20.31
2017-03-04T07:34:48.852Z,20.28
2017-03-04T07:36:03.269Z,20.26
2017-03-04T07:37:17.662Z,20.24
2017-03-04T07:38:32.041Z,20.28
2017-03-04T07:39:46.419Z,20.28
2017-03-04T07:41:00.819Z,20.26
2017-03-04T07:42:14.587Z,20.28
2017-03-04T07:43:28.984Z,20.32
2017-03-04T07:44:43.366Z,20.31
2017-03-04T07:45:57.765Z,20.33
2017-03-04T07:47:12.169Z,20.29
2017-03-04T07:48:25.954Z,20.28
2017-03-04T07:49:40.350Z,20.29
2017-03-04T07:50:54.807Z,20.28
2017-03-04T07:52:07.897Z,20.24
2017-03-04T07:53:22.283Z,20.28
2017-03-04T07:54:36.688Z,20.29
2017-03-04T07:55:50.465Z,20.28
2017-03-04T07:57:04.876Z,20.28
2017-03-04T07:58:19.258Z,20.38
2017-03-04T07:59:33.684Z,20.32
2017-03-04T08:00:48.071Z,20.35
2017-03-04T08:02:02.488Z,20.29
2017-03-04T08:03:16.907Z,20.29
2017-03-04T08:04:31.315Z,20.29
2017-03-04T08:05:45.729Z,20.29
2017-03-04T08:07:00.113Z,20.32
2017-03-04T08:08:14.564Z,20.31
2017-03-04T08:09:28.962Z,20.39
2017-03-04T08:10:43.380Z,20.38
2017-03-04T08:11:57.802Z,20.32
2017-03-04T08:13:12.214Z,20.32
2017-03-04T08:14:26.614Z,20.24
2017-03-04T08:15:40.370Z,20.41
2017-03-04T08:16:54.759Z,20.41
2017-03-04T08:18:09.152Z,20.39
2017-03-04T08:19:23.549Z,20.41
2017-03-04T08:20:37.971Z,20.43
2017-03-04T08:21:52.401Z,20.47
2017-03-04T08:23:06.821Z,20.39
2017-03-04T08:24:21.256Z,20.41
2017-03-04T08:25:35.639Z,20.43
2017-03-04T08:26:50.033Z,20.43
2017-03-04T08:28:04.465Z,20.47
2017-03-04T08:29:18.896Z,20.36
2017-03-04T08:30:33.272Z,20.43
2017-03-04T08:31:47.712Z,20.48
2017-03-04T08:33:02.152Z,20.43
2017-03-04T08:34:16.541Z,20.54
2017-03-04T08:35:30.948Z,20.47
2017-03-04T08:36:45.381Z,20.51
2017-03-04T08:37:59.777Z,20.48
2017-03-04T08:39:14.197Z,20.39
2017-03-04T08:40:28.614Z,20.47
2017-03-04T08:41:43.015Z,20.48
2017-03-04T08:42:57.421Z,20.47
2017-03-04T08:44:11.188Z,20.42
2017-03-04T08:45:25.599Z,20.41
2017-03-04T08:46:40.043Z,20.36
2017-03-04T08:47:54.436Z,20.35
2017-03-04T08:49:08.855Z,20.41
2017-03-04T08:50:22.648Z,20.35
2017-03-04T08:51:37.055Z,20.33
2017-03-04T08:52:51.447Z,20.36
2017-03-04T08:54:05.826Z,20.35
2017-03-04T08:55:19.595Z,20.39
2017-03-04T08:56:33.377Z,20.33
2017-03-04T08:57:47.822Z,20.41
2017-03-04T08:59:02.204Z,20.31
2017-03-04T09:00:16.632Z,20.41
2017-03-04T09:01:31.011Z,20.38
2017-03-04T09:02:45.426Z,20.38
2017-03-04T09:03:59.858Z,20.35
2017-03-04T09:05:14.325Z,20.31
2017-03-04T09:06:28.750Z,20.41
2017-03-04T09:07:43.130Z,20.41
2017-03-04T09:08:57.516Z,20.47
2017-03-04T09:10:11.270Z,20.48
2017-03-04T09:11:25.656Z,20.39
2017-03-04T09:12:40.041Z,20.5
2017-03-04T09:13:54.443Z,20.39
2017-03-04T09:15:08.899Z,20.47
2017-03-04T09:16:23.349Z,20.51
2017-03-04T09:17:37.810Z,20.48
2017-03-04T09:18:52.246Z,20.51
2017-03-04T09:20:06.631Z,20.57
2017-03-04T09:21:21.018Z,20.58
2017-03-04T09:22:34.816Z,20.57
2017-03-04T09:23:49.234Z,20.43
2017-03-04T09:25:03.624Z,20.55
2017-03-04T09:26:18.060Z,20.62
2017-03-04T09:27:32.443Z,20.47
2017-03-04T09:28:46.853Z,20.54
2017-03-04T09:30:01.291Z,20.64
2017-03-04T09:31:15.736Z,20.61
2017-03-04T09:32:30.141Z,20.67
2017-03-04T09:33:44.522Z,20.69
2017-03-04T09:34:58.357Z,20.74
2017-03-04T09:36:12.773Z,20.77
2017-03-04T09:37:27.176Z,20.76
2017-03-04T09:38:40.293Z,20.82
2017-03-04T09:39:54.693Z,20.87
2017-03-04T09:41:08.492Z,20.94
2017-03-04T09:42:22.913Z,20.95
2017-03-04T09:43:37.369Z,21.01
2017-03-04T09:44:51.792Z,20.95
2017-03-04T09:46:06.189Z,21.09
2017-03-04T09:47:20.668Z,21.13
2017-03-04T09:48:33.774Z,21.14
2017-03-04T09:49:48.235Z,21.24
2017-03-04T09:51:02.657Z,21.17
2017-03-04T09:52:17.063Z,21.31
2017-03-04T09:53:31.462Z,21.27
2017-03-04T09:54:45.853Z,21.4
2017-03-04T09:56:00.227Z,21.35
2017-03-04T09:57:14.644Z,21.32
2017-03-04T09:58:29.037Z,21.35
2017-03-04T09:59:43.444Z,21.35
2017-03-04T10:00:57.850Z,21.37
2017-03-04T10:02:12.237Z,21.42
2017-03-04T10:03:26.637Z,21.43
2017-03-04T10:04:41.010Z,21.47
2017-03-04T10:05:55.453Z,21.5
2017-03-04T10:07:09.893Z,21.47
2017-03-04T10:08:24.333Z,21.44
2017-03-04T10:09:38.085Z,21.5
2017-03-04T10:10:52.491Z,21.52
2017-03-04T10:12:06.878Z,21.58
2017-03-04T10:13:21.308Z,21.56
2017-03-04T10:14:35.763Z,21.61
2017-03-04T10:15:50.182Z,21.65
2017-03-04T10:17:03.917Z,21.59
2017-03-04T10:18:18.291Z,21.69
2017-03-04T10:19:32.718Z,21.61
2017-03-04T10:20:47.104Z,21.61
2017-03-04T10:22:01.482Z,21.64
2017-03-04T10:23:15.902Z,21.68
2017-03-04T10:24:30.328Z,21.65
2017-03-04T10:25:44.753Z,21.74
2017-03-04T10:26:59.147Z,21.82
2017-03-04T10:28:13.595Z,21.86
2017-03-04T10:29:28.043Z,21.8
2017-03-04T10:30:42.424Z,21.75
2017-03-04T10:31:56.842Z,21.9
2017-03-04T10:33:11.248Z,21.9
2017-03-04T10:34:25.681Z,21.91
2017-03-04T10:35:40.093Z,21.83
2017-03-04T10:36:54.511Z,21.86
2017-03-04T10:38:08.252Z,21.91
2017-03-04T10:39:22.003Z,22.02
2017-03-04T10:40:36.413Z,21.98
2017-03-04T10:41:50.832Z,21.96
2017-03-04T10:43:05.243Z,21.94
2017-03-04T10:44:19.670Z,21.98
2017-03-04T10:45:34.077Z,21.98
2017-03-04T10:46:48.460Z,22
2017-03-04T10:48:02.876Z,22.03
2017-03-04T10:49:17.278Z,22.07
2017-03-04T10:50:31.698Z,22.22
2017-03-04T10:51:46.098Z,22.25
2017-03-04T10:52:59.883Z,22.22
2017-03-04T10:54:14.275Z,22.17
2017-03-04T10:55:28.711Z,22.21
2017-03-04T10:56:42.493Z,22.39
2017-03-04T10:57:56.875Z,22.43
2017-03-04T10:59:11.293Z,22.4
2017-03-04T11:00:25.060Z,22.57
2017-03-04T11:01:39.472Z,22.45
2017-03-04T11:02:53.874Z,22.42
2017-03-04T11:04:08.279Z,22.42
2017-03-04T11:05:22.666Z,22.46
2017-03-04T11:06:37.051Z,22.49
2017-03-04T11:07:51.475Z,22.51
2017-03-04T11:09:05.896Z,22.57
2017-03-04T11:10:20.288Z,22.6
2017-03-04T11:11:33.426Z,22.8
2017-03-04T11:12:47.821Z,22.86
2017-03-04T11:14:02.236Z,22.83
2017-03-04T11:15:15.979Z,22.83
2017-03-04T11:16:29.716Z,22.9
2017-03-04T11:17:44.172Z,22.94
2017-03-04T11:18:58.543Z,23.05
2017-03-04T11:20:12.935Z,23.09
2017-03-04T11:21:27.358Z,23.22
2017-03-04T11:22:41.757Z,23.23
2017-03-04T11:23:56.179Z,23.22
2017-03-04T11:25:10.578Z,23.28
2017-03-04T11:26:24.967Z,23.33
2017-03-04T11:27:39.377Z,23.33
2017-03-04T11:28:53.781Z,23.28
2017-03-04T11:30:07.569Z,23.46
2017-03-04T11:31:22.076Z,23.36
2017-03-04T11:32:36.477Z,23.33
2017-03-04T11:33:50.886Z,23.23
2017-03-04T11:35:05.297Z,23.19
2017-03-04T11:36:19.734Z,23.2
2017-03-04T11:37:34.148Z,23.07
2017-03-04T11:38:47.935Z,23.15
2017-03-04T11:40:02.328Z,23.04
2017-03-04T11:41:16.735Z,23
2017-03-04T11:42:30.493Z,23
2017-03-04T11:43:44.898Z,22.83
2017-03-04T11:44:59.298Z,22.9
2017-03-04T11:46:13.716Z,22.94
2017-03-04T11:47:28.114Z,23.01
2017-03-04T11:48:42.551Z,23.1
2017-03-04T11:49:56.345Z,23.25
2017-03-04T11:51:10.112Z,23.35
2017-03-04T11:52:24.490Z,23.39
2017-03-04T11:53:37.611Z,23.43
2017-03-04T11:54:52.003Z,23.48
2017-03-04T11:56:06.460Z,23.38
2017-03-04T11:57:19.579Z,23.42
2017-03-04T11:58:33.974Z,23.43
2017-03-04T11:59:48.364Z,23.51
2017-03-04T12:01:02.754Z,23.5
2017-03-04T12:02:17.149Z,23.35
2017-03-04T12:03:31.541Z,23.38
2017-03-04T12:04:45.967Z,23.39
2017-03-04T12:06:00.358Z,23.25
2017-03-04T12:07:14.115Z,23.28
2017-03-04T12:08:28.499Z,23.28
2017-03-04T12:09:42.932Z,23.22
2017-03-04T12:10:57.340Z,23.17
2017-03-04T12:12:11.776Z,23.23
2017-03-04T12:13:25.526Z,23.23
2017-03-04T12:14:39.888Z,23.35
2017-03-04T12:15:54.339Z,23.33
2017-03-04T12:17:08.802Z,23.39
2017-03-04T12:18:23.238Z,23.6
2017-03-04T12:19:37.034Z,23.6
2017-03-04T12:20:51.457Z,23.61
2017-03-04T12:22:05.862Z,23.53
2017-03-04T12:23:20.255Z,23.6
2017-03-04T12:24:34.044Z,23.58
2017-03-04T12:25:48.445Z,23.75
2017-03-04T12:27:03.185Z,23.93
2017-03-04T12:28:17.574Z,24.12
2017-03-04T12:29:31.961Z,24.13
2017-03-04T12:30:45.752Z,24.16
2017-03-04T12:32:00.162Z,24.22
2017-03-04T12:33:14.575Z,24.1
2017-03-04T12:34:28.987Z,24.16
2017-03-04T12:35:43.387Z,24.35
2017-03-04T12:36:57.845Z,24.2
2017-03-04T12:38:12.246Z,23.94
2017-03-04T12:39:26.541Z,23.95
2017-03-04T12:40:40.240Z,24
2017-03-04T12:41:53.984Z,24.02
2017-03-04T12:43:07.703Z,23.95
2017-03-04T12:44:21.459Z,23.95
2017-03-04T12:45:35.186Z,24.02
2017-03-04T12:46:48.903Z,24.15
2017-03-04T12:48:02.620Z,24.4
2017-03-04T12:49:16.356Z,24.57
2017-03-04T12:50:29.501Z,24.58
2017-03-04T12:51:43.248Z,24.8
2017-03-04T12:52:56.971Z,25.03
2017-03-04T12:54:10.080Z,25.08
2017-03-04T12:55:23.807Z,25.38
2017-03-04T12:56:37.613Z,25.69
2017-03-04T12:57:51.342Z,26.09
2017-03-04T12:59:05.088Z,26.1
2017-03-04T13:00:18.858Z,26.33
2017-03-04T13:01:32.615Z,26.47
2017-03-04T13:02:45.722Z,26.58
2017-03-04T13:03:59.477Z,26.5
2017-03-04T13:05:13.223Z,26.25
2017-03-04T13:06:26.974Z,25.58
2017-03-04T13:07:40.115Z,25.35
2017-03-04T13:08:53.860Z,25.05
2017-03-04T13:10:07.612Z,25.06
2017-03-04T13:11:21.340Z,25.02
2017-03-04T13:12:35.112Z,25.17
2017-03-04T13:13:48.882Z,25.18
2017-03-04T13:15:03.174Z,25.17
2017-03-04T13:16:17.612Z,25.25
2017-03-04T13:17:32.020Z,25.39
2017-03-04T13:18:46.429Z,25.58
2017-03-04T13:20:00.827Z,25.62
2017-03-04T13:21:14.876Z,25.83
2017-03-04T13:22:28.574Z,25.6
2017-03-04T13:23:42.314Z,25.72
2017-03-04T13:24:56.060Z,25.61
2017-03-04T13:26:08.613Z,26.07
2017-03-04T13:27:22.378Z,26.48
2017-03-04T13:28:36.181Z,26.5
2017-03-04T13:29:49.899Z,26.62
2017-03-04T13:31:03.628Z,26.91
2017-03-04T13:32:17.330Z,26.95
2017-03-04T13:33:31.069Z,26.65
2017-03-04T13:34:44.824Z,26.54
2017-03-04T13:35:58.587Z,26.36
2017-03-04T13:37:12.296Z,26.32
2017-03-04T13:38:26.014Z,25.83
2017-03-04T13:39:39.723Z,25.5
2017-03-04T13:40:53.435Z,25.4
2017-03-04T13:42:07.154Z,25.33
2017-03-04T13:43:20.911Z,25.3
2017-03-04T13:44:34.087Z,25.38
2017-03-04T13:45:47.792Z,25.57
2017-03-04T13:47:01.535Z,25.79
2017-03-04T13:48:15.334Z,25.73
2017-03-04T13:49:29.019Z,25.97
2017-03-04T13:50:42.141Z,26.33
2017-03-04T13:51:55.909Z,26.29
2017-03-04T13:53:09.610Z,26.57
2017-03-04T13:54:23.403Z,26.63
2017-03-04T13:55:37.141Z,26.67
2017-03-04T13:56:50.915Z,26.52
2017-03-04T13:58:04.667Z,26.7
2017-03-04T13:59:18.409Z,26.73
2017-03-04T14:00:32.134Z,26.92
2017-03-04T14:01:45.954Z,27.12
2017-03-04T14:34:03.438Z,27.07
2017-03-04T14:35:17.158Z,27.09
2017-03-04T14:36:30.896Z,27.4
2017-03-04T14:37:43.468Z,27.43
2017-03-04T14:38:57.230Z,27.32
2017-03-04T14:40:10.953Z,27.49
2017-03-04T14:41:24.680Z,27.49
2017-03-04T14:42:38.455Z,27.65
2017-03-04T14:43:51.569Z,27.24
2017-03-04T14:45:05.284Z,27.06
2017-03-04T14:46:18.992Z,27.03
2017-03-04T14:47:32.122Z,27.22
2017-03-04T14:48:45.857Z,27.46
2017-03-04T14:49:59.587Z,27.72
2017-03-04T14:51:13.326Z,27.6
2017-03-04T14:52:27.038Z,27.85
2017-03-04T14:53:40.739Z,28.12
2017-03-04T14:54:54.494Z,28.03
2017-03-04T14:56:08.234Z,27.93
2017-03-04T14:57:21.995Z,27.72
2017-03-04T14:58:35.793Z,27.66
2017-03-04T14:59:49.591Z,27.62
2017-03-04T15:01:03.292Z,27.62
2017-03-04T15:02:16.437Z,27.62
2017-03-04T15:03:29.004Z,27.74
2017-03-04T15:04:42.717Z,27.57
2017-03-04T15:05:56.451Z,27.39
2017-03-04T15:07:10.204Z,27.31
2017-03-04T15:08:23.338Z,27.28
2017-03-04T15:09:37.087Z,27.36
2017-03-04T15:10:50.246Z,27.6
2017-03-04T15:12:04.037Z,28.17
2017-03-04T15:13:17.156Z,28.61
2017-03-04T15:14:30.897Z,28.46
2017-03-04T15:15:44.087Z,27.9
2017-03-04T15:16:57.817Z,27.7
2017-03-04T15:18:11.576Z,27.43
2017-03-04T15:19:25.320Z,27.47
2017-03-04T15:20:39.055Z,27.28
2017-03-04T15:21:52.161Z,27.07
2017-03-04T15:23:05.898Z,26.91
2017-03-04T15:24:19.640Z,26.85
2017-03-04T15:25:33.402Z,26.94
2017-03-04T15:26:47.267Z,27.04
2017-03-04T15:28:01.139Z,27.27
2017-03-04T15:29:14.888Z,27.37
2017-03-04T15:30:28.006Z,27.36
2017-03-04T15:31:41.125Z,27.85
2017-03-04T15:32:54.849Z,28.27
2017-03-04T15:34:08.665Z,28.31
2017-03-04T15:35:22.414Z,28.14
2017-03-04T15:36:36.115Z,28.04
2017-03-04T15:37:49.879Z,28.15
2017-03-04T15:39:03.624Z,28.33
2017-03-04T15:40:17.378Z,28.46
2017-03-04T15:41:30.528Z,28.34
2017-03-04T15:42:44.301Z,27.94
2017-03-04T15:43:58.118Z,27.96
2017-03-04T15:45:11.837Z,28.31
2017-03-04T15:46:25.575Z,29
2017-03-04T15:47:39.338Z,29.26
2017-03-04T15:48:53.082Z,29.63
2017-03-04T15:50:06.847Z,29.92
2017-03-04T15:51:20.601Z,30.1
2017-03-04T15:52:34.396Z,29.94
2017-03-04T15:53:48.132Z,29.8
2017-03-04T15:55:01.862Z,29.45
2017-03-04T15:56:15.565Z,29.45
2017-03-04T15:57:28.693Z,29.79
2017-03-04T15:58:42.418Z,29.42
2017-03-04T15:59:56.129Z,29.3
2017-03-04T16:01:09.855Z,29.27
2017-03-04T16:02:24.463Z,29.24
2017-03-04T16:03:38.211Z,28.9
2017-03-04T16:04:50.700Z,29.19
2017-03-04T16:06:04.449Z,29
2017-03-04T16:07:18.176Z,29.24
2017-03-04T16:08:30.733Z,29.11
2017-03-04T16:09:44.494Z,29.24
2017-03-04T16:10:58.172Z,29.33
2017-03-04T16:12:11.911Z,28.9
2017-03-04T16:13:25.697Z,28.59
2017-03-04T16:14:38.197Z,28.54
2017-03-04T16:15:51.937Z,28.48
2017-03-04T16:17:05.682Z,28.46
2017-03-04T16:18:19.408Z,28.98
2017-03-04T16:19:33.179Z,29.48
2017-03-04T16:20:46.918Z,29.68
2017-03-04T16:22:00.682Z,29.48
2017-03-04T16:23:14.432Z,28.92
2017-03-04T16:24:27.573Z,28.76
2017-03-04T16:25:41.318Z,28.55
2017-03-04T16:26:54.452Z,28.7
2017-03-04T16:28:08.218Z,29.08
2017-03-04T16:29:22.054Z,29.76
2017-03-04T16:30:35.800Z,30.6
2017-03-04T16:31:48.945Z,30.8
2017-03-04T16:33:02.685Z,30.11